sensor_id;sensor_type;location;lat;lon;timestamp;pressure;altitude;pressure_sealevel;temperature;humidity
31911;BME280;18457;52.432;16.914;2023-02-05T00:00:00;102637.43;;;-0.03;84.57
31911;BME280;18457;52.432;16.914;2023-02-05T00:02:28;102633.16;;;0.04;84.13
31911;BME280;18457;52.432;16.914;2023-02-05T00:04:58;102638.20;;;0.08;84.16
31911;BME280;18457;52.432;16.914;2023-02-05T00:07:26;102639.05;;;0.08;84.01
31911;BME280;18457;52.432;16.914;2023-02-05T00:09:55;102645.88;;;-0.01;84.59
31911;BME280;18457;52.432;16.914;2023-02-05T00:12:23;102646.02;;;-0.05;84.76
31911;BME280;18457;52.432;16.914;2023-02-05T00:14:52;102655.48;;;-0.11;85.03
31911;BME280;18457;52.432;16.914;2023-02-05T00:17:21;102656.72;;;-0.26;85.45
31911;BME280;18457;52.432;16.914;2023-02-05T00:19:49;102658.77;;;-0.28;85.91
31911;BME280;18457;52.432;16.914;2023-02-05T00:22:18;102661.98;;;-0.31;85.86
31911;BME280;18457;52.432;16.914;2023-02-05T00:24:46;102664.02;;;-0.32;86.66
31911;BME280;18457;52.432;16.914;2023-02-05T00:27:16;102660.85;;;-0.32;86.49
31911;BME280;18457;52.432;16.914;2023-02-05T00:29:44;102661.27;;;-0.31;86.60
31911;BME280;18457;52.432;16.914;2023-02-05T00:32:13;102659.33;;;-0.33;86.26
31911;BME280;18457;52.432;16.914;2023-02-05T00:34:41;102662.33;;;-0.43;86.50
31911;BME280;18457;52.432;16.914;2023-02-05T00:37:09;102658.36;;;-0.48;86.63
31911;BME280;18457;52.432;16.914;2023-02-05T00:39:39;102660.11;;;-0.48;86.79
31911;BME280;18457;52.432;16.914;2023-02-05T00:42:07;102660.27;;;-0.57;86.75
31911;BME280;18457;52.432;16.914;2023-02-05T00:44:36;102660.08;;;-0.61;87.30
31911;BME280;18457;52.432;16.914;2023-02-05T00:47:05;102661.48;;;-0.58;87.71
31911;BME280;18457;52.432;16.914;2023-02-05T00:49:34;102663.73;;;-0.56;87.75
31911;BME280;18457;52.432;16.914;2023-02-05T00:52:02;102662.05;;;-0.54;87.51
31911;BME280;18457;52.432;16.914;2023-02-05T00:54:32;102659.61;;;-0.50;87.93
31911;BME280;18457;52.432;16.914;2023-02-05T00:57:00;102661.73;;;-0.57;87.10
31911;BME280;18457;52.432;16.914;2023-02-05T00:59:29;102662.52;;;-0.68;87.30
31911;BME280;18457;52.432;16.914;2023-02-05T01:01:59;102668.41;;;-0.70;87.81
31911;BME280;18457;52.432;16.914;2023-02-05T01:04:27;102659.86;;;-0.74;87.86
31911;BME280;18457;52.432;16.914;2023-02-05T01:06:56;102661.27;;;-0.77;87.96
31911;BME280;18457;52.432;16.914;2023-02-05T01:09:24;102662.27;;;-0.78;88.07
31911;BME280;18457;52.432;16.914;2023-02-05T01:11:53;102663.18;;;-0.80;88.06
31911;BME280;18457;52.432;16.914;2023-02-05T01:14:22;102658.77;;;-0.83;88.48
31911;BME280;18457;52.432;16.914;2023-02-05T01:16:51;102661.91;;;-0.88;88.37
31911;BME280;18457;52.432;16.914;2023-02-05T01:19:19;102656.00;;;-0.91;88.65
31911;BME280;18457;52.432;16.914;2023-02-05T01:21:47;102649.09;;;-0.97;88.79
31911;BME280;18457;52.432;16.914;2023-02-05T01:24:16;102648.19;;;-0.98;89.08
31911;BME280;18457;52.432;16.914;2023-02-05T01:26:45;102645.26;;;-0.99;89.34
31911;BME280;18457;52.432;16.914;2023-02-05T01:29:15;102645.97;;;-1.05;89.26
31911;BME280;18457;52.432;16.914;2023-02-05T01:31:43;102646.14;;;-1.05;89.51
31911;BME280;18457;52.432;16.914;2023-02-05T01:34:12;102644.62;;;-1.07;89.58
31911;BME280;18457;52.432;16.914;2023-02-05T01:36:41;102646.61;;;-1.03;89.88
31911;BME280;18457;52.432;16.914;2023-02-05T01:39:10;102644.17;;;-0.96;89.52
31911;BME280;18457;52.432;16.914;2023-02-05T01:41:39;102641.17;;;-0.96;89.38
31911;BME280;18457;52.432;16.914;2023-02-05T01:44:12;102644.34;;;-1.02;89.34
31911;BME280;18457;52.432;16.914;2023-02-05T01:46:41;102639.92;;;-1.02;89.49
31911;BME280;18457;52.432;16.914;2023-02-05T01:49:16;102635.23;;;-1.07;89.69
31911;BME280;18457;52.432;16.914;2023-02-05T01:51:47;102636.10;;;-1.10;90.11
31911;BME280;18457;52.432;16.914;2023-02-05T01:54:18;102635.28;;;-1.12;90.10
31911;BME280;18457;52.432;16.914;2023-02-05T01:56:52;102636.55;;;-1.12;89.93
31911;BME280;18457;52.432;16.914;2023-02-05T01:59:24;102636.80;;;-1.10;90.10
31911;BME280;18457;52.432;16.914;2023-02-05T02:01:55;102639.16;;;-1.09;90.11
31911;BME280;18457;52.432;16.914;2023-02-05T02:04:33;102641.75;;;-1.13;90.36
31911;BME280;18457;52.432;16.914;2023-02-05T02:07:05;102642.96;;;-1.11;90.68
31911;BME280;18457;52.432;16.914;2023-02-05T02:09:38;102638.09;;;-1.09;90.54
31911;BME280;18457;52.432;16.914;2023-02-05T02:12:09;102636.48;;;-1.10;90.24
31911;BME280;18457;52.432;16.914;2023-02-05T02:14:39;102638.95;;;-1.13;90.31
31911;BME280;18457;52.432;16.914;2023-02-05T02:17:09;102638.82;;;-1.06;89.61
31911;BME280;18457;52.432;16.914;2023-02-05T02:19:43;102641.43;;;-1.07;89.39
31911;BME280;18457;52.432;16.914;2023-02-05T02:22:33;102638.39;;;-1.10;89.56
31911;BME280;18457;52.432;16.914;2023-02-05T02:28:01;102636.61;;;-1.13;90.40
31911;BME280;18457;52.432;16.914;2023-02-05T02:30:38;102631.96;;;-1.08;90.50
31911;BME280;18457;52.432;16.914;2023-02-05T02:33:15;102626.81;;;-1.11;90.33
31911;BME280;18457;52.432;16.914;2023-02-05T02:35:56;102625.15;;;-1.12;90.25
31911;BME280;18457;52.432;16.914;2023-02-05T02:38:30;102624.83;;;-1.15;90.22
31911;BME280;18457;52.432;16.914;2023-02-05T02:41:05;102621.25;;;-1.15;89.92
31911;BME280;18457;52.432;16.914;2023-02-05T02:43:41;102621.73;;;-1.22;90.09
31911;BME280;18457;52.432;16.914;2023-02-05T02:46:17;102620.27;;;-1.20;90.55
31911;BME280;18457;52.432;16.914;2023-02-05T02:48:47;102621.98;;;-1.21;90.54
31911;BME280;18457;52.432;16.914;2023-02-05T02:51:19;102618.92;;;-1.22;90.57
31911;BME280;18457;52.432;16.914;2023-02-05T02:53:52;102625.27;;;-1.25;90.78
31911;BME280;18457;52.432;16.914;2023-02-05T02:56:23;102630.36;;;-1.32;90.81
31911;BME280;18457;52.432;16.914;2023-02-05T02:58:56;102628.55;;;-1.35;90.51
31911;BME280;18457;52.432;16.914;2023-02-05T03:01:28;102628.09;;;-1.31;90.88
31911;BME280;18457;52.432;16.914;2023-02-05T03:04:03;102627.40;;;-1.25;90.78
31911;BME280;18457;52.432;16.914;2023-02-05T03:06:35;102624.78;;;-1.13;90.31
31911;BME280;18457;52.432;16.914;2023-02-05T03:09:11;102629.27;;;-1.29;89.87
31911;BME280;18457;52.432;16.914;2023-02-05T03:11:40;102626.77;;;-1.44;90.50
31911;BME280;18457;52.432;16.914;2023-02-05T03:14:10;102622.21;;;-1.49;91.04
31911;BME280;18457;52.432;16.914;2023-02-05T03:16:39;102619.17;;;-1.50;90.92
31911;BME280;18457;52.432;16.914;2023-02-05T03:19:08;102622.36;;;-1.47;90.44
31911;BME280;18457;52.432;16.914;2023-02-05T03:21:40;102626.61;;;-1.41;90.26
31911;BME280;18457;52.432;16.914;2023-02-05T03:24:10;102628.92;;;-1.47;90.71
31911;BME280;18457;52.432;16.914;2023-02-05T03:26:40;102631.50;;;-1.51;90.89
31911;BME280;18457;52.432;16.914;2023-02-05T03:29:33;102628.30;;;-1.57;90.78
31911;BME280;18457;52.432;16.914;2023-02-05T03:32:17;102625.77;;;-1.58;91.08
31911;BME280;18457;52.432;16.914;2023-02-05T03:35:00;102625.30;;;-1.59;91.69
31911;BME280;18457;52.432;16.914;2023-02-05T03:37:39;102619.08;;;-1.63;91.88
31911;BME280;18457;52.432;16.914;2023-02-05T03:40:19;102618.52;;;-1.58;92.42
31911;BME280;18457;52.432;16.914;2023-02-05T03:42:59;102625.48;;;-1.54;92.42
31911;BME280;18457;52.432;16.914;2023-02-05T03:45:41;102623.04;;;-1.59;92.02
31911;BME280;18457;52.432;16.914;2023-02-05T03:48:32;102624.92;;;-1.60;92.18
31911;BME280;18457;52.432;16.914;2023-02-05T03:51:15;102618.03;;;-1.60;92.46
31911;BME280;18457;52.432;16.914;2023-02-05T03:53:54;102619.98;;;-1.63;92.29
31911;BME280;18457;52.432;16.914;2023-02-05T03:56:27;102620.33;;;-1.74;91.89
31911;BME280;18457;52.432;16.914;2023-02-05T03:58:58;102627.09;;;-1.80;91.80
31911;BME280;18457;52.432;16.914;2023-02-05T04:01:28;102630.98;;;-1.74;92.88
31911;BME280;18457;52.432;16.914;2023-02-05T04:03:58;102632.45;;;-1.53;92.15
31911;BME280;18457;52.432;16.914;2023-02-05T04:06:26;102632.34;;;-1.49;91.44
31911;BME280;18457;52.432;16.914;2023-02-05T04:08:54;102631.83;;;-1.48;90.03
31911;BME280;18457;52.432;16.914;2023-02-05T04:11:23;102628.30;;;-1.62;89.76
31911;BME280;18457;52.432;16.914;2023-02-05T04:13:52;102629.80;;;-1.50;89.94
31911;BME280;18457;52.432;16.914;2023-02-05T04:16:20;102628.31;;;-1.45;89.65
31911;BME280;18457;52.432;16.914;2023-02-05T04:18:49;102633.55;;;-1.46;89.32
31911;BME280;18457;52.432;16.914;2023-02-05T04:21:17;102640.59;;;-1.53;89.57
31911;BME280;18457;52.432;16.914;2023-02-05T04:23:46;102645.89;;;-1.59;89.80
31911;BME280;18457;52.432;16.914;2023-02-05T04:26:15;102642.88;;;-1.79;89.54
31911;BME280;18457;52.432;16.914;2023-02-05T04:28:48;102647.94;;;-1.94;89.71
31911;BME280;18457;52.432;16.914;2023-02-05T04:31:17;102646.61;;;-1.99;90.61
31911;BME280;18457;52.432;16.914;2023-02-05T04:33:46;102647.02;;;-2.01;91.13
31911;BME280;18457;52.432;16.914;2023-02-05T04:36:15;102649.14;;;-2.03;91.89
31911;BME280;18457;52.432;16.914;2023-02-05T04:38:43;102652.00;;;-2.11;91.98
31911;BME280;18457;52.432;16.914;2023-02-05T04:41:11;102645.47;;;-2.11;92.33
31911;BME280;18457;52.432;16.914;2023-02-05T04:43:40;102643.63;;;-2.07;93.07
31911;BME280;18457;52.432;16.914;2023-02-05T04:46:09;102646.70;;;-2.08;92.87
31911;BME280;18457;52.432;16.914;2023-02-05T04:48:39;102643.88;;;-2.08;92.63
31911;BME280;18457;52.432;16.914;2023-02-05T04:51:09;102648.73;;;-2.02;92.41
31911;BME280;18457;52.432;16.914;2023-02-05T04:53:38;102650.17;;;-2.01;91.75
31911;BME280;18457;52.432;16.914;2023-02-05T04:56:10;102650.97;;;-1.94;91.52
31911;BME280;18457;52.432;16.914;2023-02-05T04:58:39;102651.20;;;-1.99;91.44
31911;BME280;18457;52.432;16.914;2023-02-05T05:01:12;102654.90;;;-1.99;91.66
31911;BME280;18457;52.432;16.914;2023-02-05T05:03:41;102658.45;;;-2.13;91.29
31911;BME280;18457;52.432;16.914;2023-02-05T05:06:10;102661.71;;;-2.23;91.59
31911;BME280;18457;52.432;16.914;2023-02-05T05:08:39;102659.76;;;-2.23;91.84
31911;BME280;18457;52.432;16.914;2023-02-05T05:11:09;102653.73;;;-2.23;91.94
31911;BME280;18457;52.432;16.914;2023-02-05T05:13:38;102661.14;;;-2.21;91.61
31911;BME280;18457;52.432;16.914;2023-02-05T05:16:08;102664.02;;;-2.17;91.29
31911;BME280;18457;52.432;16.914;2023-02-05T05:18:38;102666.79;;;-2.10;91.32
31911;BME280;18457;52.432;16.914;2023-02-05T05:21:10;102664.81;;;-1.99;90.38
31911;BME280;18457;52.432;16.914;2023-02-05T05:23:38;102673.28;;;-1.94;90.36
31911;BME280;18457;52.432;16.914;2023-02-05T05:26:09;102675.43;;;-1.99;91.01
31911;BME280;18457;52.432;16.914;2023-02-05T05:28:39;102680.45;;;-1.96;91.39
31911;BME280;18457;52.432;16.914;2023-02-05T05:31:09;102680.14;;;-1.90;91.71
31911;BME280;18457;52.432;16.914;2023-02-05T05:33:37;102676.54;;;-1.87;90.98
31911;BME280;18457;52.432;16.914;2023-02-05T05:36:07;102676.86;;;-1.83;90.50
31911;BME280;18457;52.432;16.914;2023-02-05T05:38:36;102677.95;;;-1.88;89.88
31911;BME280;18457;52.432;16.914;2023-02-05T05:41:04;102687.46;;;-1.97;90.31
31911;BME280;18457;52.432;16.914;2023-02-05T05:43:52;102686.61;;;-1.93;90.59
31911;BME280;18457;52.432;16.914;2023-02-05T05:46:23;102683.31;;;-1.79;90.49
31911;BME280;18457;52.432;16.914;2023-02-05T05:48:54;102685.98;;;-1.82;90.31
31911;BME280;18457;52.432;16.914;2023-02-05T05:51:23;102694.55;;;-2.00;90.02
31911;BME280;18457;52.432;16.914;2023-02-05T05:53:53;102693.95;;;-2.09;90.68
31911;BME280;18457;52.432;16.914;2023-02-05T05:56:22;102696.36;;;-2.13;91.23
31911;BME280;18457;52.432;16.914;2023-02-05T05:58:50;102695.55;;;-2.14;91.20
31911;BME280;18457;52.432;16.914;2023-02-05T06:01:19;102697.06;;;-2.02;91.52
31911;BME280;18457;52.432;16.914;2023-02-05T06:03:49;102695.61;;;-1.89;90.63
31911;BME280;18457;52.432;16.914;2023-02-05T06:06:18;102692.37;;;-1.86;89.97
31911;BME280;18457;52.432;16.914;2023-02-05T06:08:46;102691.83;;;-1.98;90.07
31911;BME280;18457;52.432;16.914;2023-02-05T06:11:14;102693.67;;;-1.99;90.59
31911;BME280;18457;52.432;16.914;2023-02-05T06:13:43;102697.80;;;-2.07;90.36
31911;BME280;18457;52.432;16.914;2023-02-05T06:16:12;102695.27;;;-2.08;90.87
31911;BME280;18457;52.432;16.914;2023-02-05T06:18:40;102687.56;;;-2.09;91.13
31911;BME280;18457;52.432;16.914;2023-02-05T06:21:09;102691.39;;;-2.16;91.44
31911;BME280;18457;52.432;16.914;2023-02-05T06:23:38;102696.81;;;-2.19;91.30
31911;BME280;18457;52.432;16.914;2023-02-05T06:26:06;102698.08;;;-2.16;91.19
31911;BME280;18457;52.432;16.914;2023-02-05T06:28:34;102695.87;;;-2.07;90.76
31911;BME280;18457;52.432;16.914;2023-02-05T06:31:03;102694.74;;;-1.97;90.19
31911;BME280;18457;52.432;16.914;2023-02-05T06:33:32;102691.04;;;-1.99;90.22
31911;BME280;18457;52.432;16.914;2023-02-05T06:36:00;102686.65;;;-2.07;91.13
31911;BME280;18457;52.432;16.914;2023-02-05T06:38:29;102689.45;;;-2.10;91.01
31911;BME280;18457;52.432;16.914;2023-02-05T06:40:57;102691.42;;;-2.15;91.08
31911;BME280;18457;52.432;16.914;2023-02-05T06:43:25;102697.47;;;-2.17;91.15
31911;BME280;18457;52.432;16.914;2023-02-05T06:45:54;102708.07;;;-2.15;91.46
31911;BME280;18457;52.432;16.914;2023-02-05T06:48:23;102719.84;;;-2.11;91.27
31911;BME280;18457;52.432;16.914;2023-02-05T06:50:52;102726.99;;;-2.10;91.83
31911;BME280;18457;52.432;16.914;2023-02-05T06:53:20;102732.73;;;-1.95;91.94
31911;BME280;18457;52.432;16.914;2023-02-05T06:55:49;102733.27;;;-2.06;91.17
31911;BME280;18457;52.432;16.914;2023-02-05T06:58:17;102739.16;;;-2.16;91.31
31911;BME280;18457;52.432;16.914;2023-02-05T07:00:46;102747.32;;;-2.05;90.83
31911;BME280;18457;52.432;16.914;2023-02-05T07:03:14;102751.55;;;-2.08;90.85
31911;BME280;18457;52.432;16.914;2023-02-05T07:05:43;102756.93;;;-2.07;90.42
31911;BME280;18457;52.432;16.914;2023-02-05T07:08:12;102761.42;;;-2.11;90.66
31911;BME280;18457;52.432;16.914;2023-02-05T07:10:41;102758.45;;;-2.14;91.62
31911;BME280;18457;52.432;16.914;2023-02-05T07:13:09;102761.70;;;-2.20;91.70
31911;BME280;18457;52.432;16.914;2023-02-05T07:15:38;102766.52;;;-2.15;92.33
31911;BME280;18457;52.432;16.914;2023-02-05T07:18:07;102765.89;;;-2.05;92.71
31911;BME280;18457;52.432;16.914;2023-02-05T07:20:36;102768.61;;;-1.99;92.50
31911;BME280;18457;52.432;16.914;2023-02-05T07:23:04;102766.67;;;-1.96;92.70
31911;BME280;18457;52.432;16.914;2023-02-05T07:25:33;102768.62;;;-1.91;92.61
31911;BME280;18457;52.432;16.914;2023-02-05T07:28:06;102773.33;;;-1.89;92.86
31911;BME280;18457;52.432;16.914;2023-02-05T07:30:36;102778.55;;;-1.79;92.71
31911;BME280;18457;52.432;16.914;2023-02-05T07:33:05;102785.39;;;-1.72;92.41
31911;BME280;18457;52.432;16.914;2023-02-05T07:35:36;102783.95;;;-1.67;92.14
31911;BME280;18457;52.432;16.914;2023-02-05T07:38:06;102779.47;;;-1.48;91.42
31911;BME280;18457;52.432;16.914;2023-02-05T07:40:36;102776.42;;;-1.49;91.13
31911;BME280;18457;52.432;16.914;2023-02-05T07:43:05;102774.26;;;-1.44;91.29
31911;BME280;18457;52.432;16.914;2023-02-05T07:45:33;102768.60;;;-1.49;90.80
31911;BME280;18457;52.432;16.914;2023-02-05T07:48:03;102764.37;;;-1.32;90.77
31911;BME280;18457;52.432;16.914;2023-02-05T07:50:31;102765.08;;;-1.26;90.80
31911;BME280;18457;52.432;16.914;2023-02-05T07:53:00;102769.83;;;-1.18;90.46
31911;BME280;18457;52.432;16.914;2023-02-05T07:55:29;102774.53;;;-1.08;90.10
31911;BME280;18457;52.432;16.914;2023-02-05T07:57:58;102775.44;;;-0.94;89.88
31911;BME280;18457;52.432;16.914;2023-02-05T08:00:26;102771.70;;;-0.81;89.13
31911;BME280;18457;52.432;16.914;2023-02-05T08:02:55;102774.10;;;-0.71;88.50
31911;BME280;18457;52.432;16.914;2023-02-05T08:05:24;102785.98;;;-0.86;88.84
31911;BME280;18457;52.432;16.914;2023-02-05T08:07:53;102788.54;;;-0.94;89.65
31911;BME280;18457;52.432;16.914;2023-02-05T08:10:23;102792.15;;;-0.96;89.89
31911;BME280;18457;52.432;16.914;2023-02-05T08:12:52;102802.35;;;-0.86;89.88
31911;BME280;18457;52.432;16.914;2023-02-05T08:15:20;102809.52;;;-0.91;90.01
31911;BME280;18457;52.432;16.914;2023-02-05T08:17:49;102807.52;;;-0.88;90.03
31911;BME280;18457;52.432;16.914;2023-02-05T08:20:18;102806.42;;;-0.82;90.33
31911;BME280;18457;52.432;16.914;2023-02-05T08:22:47;102798.11;;;-0.82;91.11
31911;BME280;18457;52.432;16.914;2023-02-05T08:25:16;102796.59;;;-0.83;90.97
31911;BME280;18457;52.432;16.914;2023-02-05T08:27:46;102800.58;;;-0.79;91.09
31911;BME280;18457;52.432;16.914;2023-02-05T08:30:17;102805.43;;;-0.78;90.86
31911;BME280;18457;52.432;16.914;2023-02-05T08:32:47;102803.48;;;-0.69;90.62
31911;BME280;18457;52.432;16.914;2023-02-05T08:35:17;102799.86;;;-0.68;90.73
31911;BME280;18457;52.432;16.914;2023-02-05T08:37:46;102784.39;;;-0.65;90.86
31911;BME280;18457;52.432;16.914;2023-02-05T08:40:15;102788.73;;;-0.55;91.51
31911;BME280;18457;52.432;16.914;2023-02-05T08:42:44;102792.56;;;-0.47;91.94
31911;BME280;18457;52.432;16.914;2023-02-05T08:45:14;102799.67;;;-0.35;91.50
31911;BME280;18457;52.432;16.914;2023-02-05T08:47:43;102801.20;;;-0.37;91.03
31911;BME280;18457;52.432;16.914;2023-02-05T08:50:12;102800.49;;;-0.39;90.65
31911;BME280;18457;52.432;16.914;2023-02-05T08:52:40;102803.55;;;-0.39;91.15
31911;BME280;18457;52.432;16.914;2023-02-05T08:55:09;102802.85;;;-0.33;91.48
31911;BME280;18457;52.432;16.914;2023-02-05T08:57:38;102793.52;;;-0.28;91.05
31911;BME280;18457;52.432;16.914;2023-02-05T09:00:10;102787.48;;;-0.19;91.22
31911;BME280;18457;52.432;16.914;2023-02-05T09:02:41;102787.34;;;-0.13;91.05
31911;BME280;18457;52.432;16.914;2023-02-05T09:05:11;102786.88;;;-0.02;90.31
31911;BME280;18457;52.432;16.914;2023-02-05T09:07:40;102784.92;;;0.01;89.67
31911;BME280;18457;52.432;16.914;2023-02-05T09:10:11;102783.55;;;0.02;89.88
31911;BME280;18457;52.432;16.914;2023-02-05T09:12:40;102778.96;;;0.03;89.20
31911;BME280;18457;52.432;16.914;2023-02-05T09:15:09;102779.73;;;0.04;89.26
31911;BME280;18457;52.432;16.914;2023-02-05T09:17:38;102784.29;;;0.06;89.17
31911;BME280;18457;52.432;16.914;2023-02-05T09:20:09;102785.69;;;0.08;88.58
31911;BME280;18457;52.432;16.914;2023-02-05T09:22:38;102787.34;;;0.06;88.18
31911;BME280;18457;52.432;16.914;2023-02-05T09:25:07;102784.70;;;0.00;88.05
31911;BME280;18457;52.432;16.914;2023-02-05T09:27:37;102783.72;;;0.08;87.97
31911;BME280;18457;52.432;16.914;2023-02-05T09:30:07;102777.73;;;0.09;88.07
31911;BME280;18457;52.432;16.914;2023-02-05T09:32:36;102784.03;;;0.16;88.21
31911;BME280;18457;52.432;16.914;2023-02-05T09:35:05;102785.46;;;0.36;87.64
31911;BME280;18457;52.432;16.914;2023-02-05T09:37:34;102779.75;;;0.51;86.40
31911;BME280;18457;52.432;16.914;2023-02-05T09:40:03;102781.12;;;0.66;85.53
31911;BME280;18457;52.432;16.914;2023-02-05T09:42:56;102778.03;;;0.85;84.53
31911;BME280;18457;52.432;16.914;2023-02-05T09:45:47;102776.64;;;0.96;84.22
31911;BME280;18457;52.432;16.914;2023-02-05T09:48:44;102773.53;;;0.94;83.78
31911;BME280;18457;52.432;16.914;2023-02-05T09:51:19;102773.27;;;0.99;83.19
31911;BME280;18457;52.432;16.914;2023-02-05T09:53:51;102774.20;;;1.00;82.67
31911;BME280;18457;52.432;16.914;2023-02-05T09:56:22;102777.55;;;1.06;82.52
31911;BME280;18457;52.432;16.914;2023-02-05T09:58:51;102779.30;;;1.09;81.69
31911;BME280;18457;52.432;16.914;2023-02-05T10:01:39;102780.00;;;1.15;81.50
31911;BME280;18457;52.432;16.914;2023-02-05T10:04:08;102780.84;;;1.24;81.24
31911;BME280;18457;52.432;16.914;2023-02-05T10:07:13;102778.05;;;1.29;80.91
31911;BME280;18457;52.432;16.914;2023-02-05T10:10:02;102776.91;;;1.34;80.97
31911;BME280;18457;52.432;16.914;2023-02-05T10:12:42;102779.20;;;1.37;80.68
31911;BME280;18457;52.432;16.914;2023-02-05T10:15:31;102775.21;;;1.43;80.46
31911;BME280;18457;52.432;16.914;2023-02-05T10:18:13;102772.46;;;1.55;80.28
31911;BME280;18457;52.432;16.914;2023-02-05T10:20:54;102770.08;;;1.68;79.62
31911;BME280;18457;52.432;16.914;2023-02-05T10:23:38;102769.02;;;1.71;78.56
31911;BME280;18457;52.432;16.914;2023-02-05T10:26:11;102772.41;;;1.75;78.53
31911;BME280;18457;52.432;16.914;2023-02-05T10:29:01;102771.45;;;1.77;78.37
31911;BME280;18457;52.432;16.914;2023-02-05T10:31:40;102771.23;;;1.87;78.64
31911;BME280;18457;52.432;16.914;2023-02-05T10:34:19;102771.65;;;1.96;78.09
31911;BME280;18457;52.432;16.914;2023-02-05T10:36:54;102771.72;;;2.05;77.22
31911;BME280;18457;52.432;16.914;2023-02-05T10:39:28;102768.60;;;2.14;76.70
31911;BME280;18457;52.432;16.914;2023-02-05T10:42:00;102764.11;;;2.21;75.60
31911;BME280;18457;52.432;16.914;2023-02-05T10:44:35;102767.30;;;2.20;74.72
31911;BME280;18457;52.432;16.914;2023-02-05T10:47:10;102769.67;;;2.25;74.70
31911;BME280;18457;52.432;16.914;2023-02-05T10:49:45;102769.52;;;2.40;73.54
31911;BME280;18457;52.432;16.914;2023-02-05T10:52:15;102765.92;;;2.36;73.13
31911;BME280;18457;52.432;16.914;2023-02-05T10:54:45;102763.91;;;2.46;72.96
31911;BME280;18457;52.432;16.914;2023-02-05T10:57:16;102762.66;;;2.31;73.14
31911;BME280;18457;52.432;16.914;2023-02-05T10:59:52;102764.79;;;2.31;73.25
31911;BME280;18457;52.432;16.914;2023-02-05T11:02:31;102766.35;;;2.33;73.25
31911;BME280;18457;52.432;16.914;2023-02-05T11:05:03;102765.67;;;2.34;73.43
31911;BME280;18457;52.432;16.914;2023-02-05T11:07:43;102764.39;;;2.37;72.52
31911;BME280;18457;52.432;16.914;2023-02-05T11:10:18;102763.84;;;2.41;71.82
31911;BME280;18457;52.432;16.914;2023-02-05T11:12:48;102752.57;;;2.51;72.06
31911;BME280;18457;52.432;16.914;2023-02-05T11:15:24;102752.01;;;2.62;71.45
31911;BME280;18457;52.432;16.914;2023-02-05T11:17:57;102745.23;;;2.74;71.14
31911;BME280;18457;52.432;16.914;2023-02-05T11:20:31;102741.70;;;2.83;70.63
31911;BME280;18457;52.432;16.914;2023-02-05T11:23:22;102740.52;;;2.89;70.81
31911;BME280;18457;52.432;16.914;2023-02-05T11:25:52;102737.05;;;2.91;70.73
31911;BME280;18457;52.432;16.914;2023-02-05T11:28:25;102732.38;;;3.06;70.51
31911;BME280;18457;52.432;16.914;2023-02-05T11:30:55;102733.23;;;2.89;70.19
31911;BME280;18457;52.432;16.914;2023-02-05T11:33:27;102731.40;;;2.80;71.01
31911;BME280;18457;52.432;16.914;2023-02-05T11:36:00;102727.53;;;2.85;70.90
31911;BME280;18457;52.432;16.914;2023-02-05T11:38:42;102725.63;;;2.91;70.45
31911;BME280;18457;52.432;16.914;2023-02-05T11:41:13;102726.54;;;3.07;70.37
31911;BME280;18457;52.432;16.914;2023-02-05T11:43:48;102719.23;;;3.12;70.21
31911;BME280;18457;52.432;16.914;2023-02-05T11:46:19;102724.70;;;3.06;69.90
31911;BME280;18457;52.432;16.914;2023-02-05T11:48:56;102725.11;;;3.11;69.48
31911;BME280;18457;52.432;16.914;2023-02-05T11:51:39;102719.87;;;3.14;68.93
31911;BME280;18457;52.432;16.914;2023-02-05T11:54:16;102718.77;;;3.13;68.29
31911;BME280;18457;52.432;16.914;2023-02-05T11:57:00;102714.83;;;3.13;68.11
31911;BME280;18457;52.432;16.914;2023-02-05T11:59:29;102709.55;;;3.07;68.60
31911;BME280;18457;52.432;16.914;2023-02-05T12:02:20;102712.89;;;3.06;68.05
31911;BME280;18457;52.432;16.914;2023-02-05T12:04:57;102711.10;;;3.01;67.61
31911;BME280;18457;52.432;16.914;2023-02-05T12:07:30;102718.11;;;2.94;66.84
31911;BME280;18457;52.432;16.914;2023-02-05T12:10:12;102713.00;;;2.92;66.86
31911;BME280;18457;52.432;16.914;2023-02-05T12:12:48;102717.17;;;3.02;67.56
31911;BME280;18457;52.432;16.914;2023-02-05T12:15:24;102710.39;;;3.14;67.28
31911;BME280;18457;52.432;16.914;2023-02-05T12:18:02;102717.20;;;3.18;66.75
31911;BME280;18457;52.432;16.914;2023-02-05T12:20:37;102715.34;;;3.25;66.56
31911;BME280;18457;52.432;16.914;2023-02-05T12:23:23;102717.39;;;3.31;66.16
31911;BME280;18457;52.432;16.914;2023-02-05T12:26:08;102721.31;;;3.35;65.86
31911;BME280;18457;52.432;16.914;2023-02-05T12:28:49;102722.41;;;3.23;65.20
31911;BME280;18457;52.432;16.914;2023-02-05T12:31:25;102725.42;;;3.10;65.84
31911;BME280;18457;52.432;16.914;2023-02-05T12:34:18;102723.68;;;2.99;65.92
31911;BME280;18457;52.432;16.914;2023-02-05T12:37:11;102715.02;;;3.01;66.66
31911;BME280;18457;52.432;16.914;2023-02-05T12:39:45;102708.71;;;3.12;66.54
31911;BME280;18457;52.432;16.914;2023-02-05T12:42:29;102707.15;;;3.17;65.23
31911;BME280;18457;52.432;16.914;2023-02-05T12:45:30;102713.58;;;3.21;65.40
31911;BME280;18457;52.432;16.914;2023-02-05T12:48:12;102716.22;;;3.20;65.94
31911;BME280;18457;52.432;16.914;2023-02-05T12:50:55;102710.34;;;3.33;65.48
31911;BME280;18457;52.432;16.914;2023-02-05T12:53:40;102713.17;;;3.28;64.68
31911;BME280;18457;52.432;16.914;2023-02-05T12:56:16;102719.42;;;3.28;64.79
31911;BME280;18457;52.432;16.914;2023-02-05T12:58:51;102723.24;;;3.30;64.52
31911;BME280;18457;52.432;16.914;2023-02-05T13:01:34;102719.91;;;3.23;64.23
31911;BME280;18457;52.432;16.914;2023-02-05T13:04:05;102719.31;;;3.18;64.04
31911;BME280;18457;52.432;16.914;2023-02-05T13:06:44;102711.69;;;3.19;63.71
31911;BME280;18457;52.432;16.914;2023-02-05T13:09:19;102709.52;;;3.18;64.33
31911;BME280;18457;52.432;16.914;2023-02-05T13:11:53;102706.36;;;2.83;62.89